Aviation Digital Data Service (ADDS)

Output produced by METARs form (0039 UTC 17 July 2019)
found at http://www.aviationweather.gov/metar/data/
 
LOWG 170020Z AUTO VRB01KT 9999 NSC 13/11 Q1015
TAF LOWG 162315Z 1700/1724 VRB02KT CAVOK TX26/1713Z TN12/1703Z 
     BECMG 1709/1711 9999 FEW050 
     TEMPO 1715/1723 FEW050 FEW050CB SCT300 
     PROB30 
     TEMPO 1717/1722 VRB10G20KT TSRA SCT050 FEW050CB BKN090
       
LOWI 170020Z AUTO 26003KT 9999 NSC 14/11 Q1017
TAF LOWI 162315Z 1700/1724 VRB02KT CAVOK TX27/1714Z TN12/1704Z 
     BECMG 1709/1711 09009KT 9999 SCT080 
     TEMPO 1714/1720 VRB15G25KT SCT080 SCT080CB 
     BECMG 1720/1722 VRB02KT CAVOK
       
LOWK 170020Z AUTO 29004KT 9999 NSC 14/10 Q1016
TAF LOWK 162315Z 1700/1724 VRB02KT CAVOK TX28/1714Z TN13/1704Z 
     BECMG 1705/1707 9999 FEW060 
     TEMPO 1713/1722 FEW060 FEW060CB SCT300 
     PROB30 
     TEMPO 1716/1721 VRB10G20KT TSRA SCT050 FEW060CB BKN080
       
LOWL 170020Z AUTO 25004KT 9999 NSC 14/11 Q1015
TAF LOWL 162315Z 1700/1724 27004KT CAVOK TX26/1715Z TN12/1704Z 
     TEMPO 1712/1717 27007KT 9999 FEW060
       
LOWS 170020Z AUTO 16006KT 9999 FEW250 13/11 Q1016
TAF LOWS 162315Z 1700/1724 15006KT CAVOK TX26/1714Z TN14/1704Z 
     BECMG 1707/1709 34007KT 9999 FEW050 
     TEMPO 1712/1718 FEW060CB 
     BECMG 1719/1721 17006KT CAVOK
       
LOWW 170020Z VRB01KT CAVOK 14/10 Q1015 NOSIG
TAF LOWW 162315Z 1700/1806 32007KT CAVOK TX25/1714Z TN14/1703Z 
     TEMPO 1700/1703 02006KT 
     BECMG 1712/1714 36010KT 
     TEMPO 1718/1724 9999 FEW050CB 
     BECMG 1801/1803 VRB02KT
       
TAF AMD LOAV 161806Z 1618/1621 30006KT 9999 SCT055 
     TEMPO 1618/1620 30012G22KT
       
LOAN 161900Z 30004KT 40KM FEW060CU SCT100AC
LOXZ 162350Z 27002KT 15KM FEW300CI 09/06 Q1017